KRHV

Reid-Hillview of Santa Clara County Airport

San Jose, California, USA
METAR KRHV 211355Z 14010KT 10SM BKN020 13/08 A2985
Observed Flight Rules
May-21 @ 13:55 UTC (52 minutes ago) Marginal Visual Flight Rules
Wind Visibility Clouds
140° at 10 knots 10 miles
  • Broken at 2,000' AGL
Temperatures Readings
Current 13°C / 55°F
Dewpoint 8°C / 46°F
Humidity 72%
Altimeter 29.85" Hg
Pressure 1011 hPa
Elevation 41
METAR KRHV 211355Z 14010KT 10SM BKN020 13/08 A2985
Observed Flight Rules
May-21 @ 13:55 UTC
(52 minutes ago)
MVFR
Wind Visibility
140° at 10 knots 10 miles
Clouds
  • Broken at 2,000' AGL
Temperature Dewpoint
13°C / 55°F 8°C / 46°F
Humidity Altimeter Pressure
72% 29.85" Hg 1011 hPa